This is the latest recevied weather packets stored in our database for station/object IW4CYE-7. If no packets are shown the sender has not sent any weather packets the latest 10 day(s).
| Time | Temp. | Humidity | Pressure | Rain* | Wind** | Luminosity | Snow |
|---|---|---|---|---|---|---|---|
| 1787948241 | 27.78° C | 76% | 1002 hPa | 0 mm | - | - | - |
| 1787947641 | 27.78° C | 78% | 1002 hPa | 0 mm | - | - | - |
| 1787947041 | 27.78° C | 76% | 1002 hPa | 0 mm | - | - | - |
| 1787946441 | 28.33° C | 75% | 1001.7 hPa | 0 mm | - | - | - |
| 1787945841 | 28.33° C | 73% | 1001.4 hPa | 0 mm | - | - | - |
| 1787945241 | 28.33° C | 72% | 1001.7 hPa | 0 mm | - | - | - |
| 1787944641 | 29.44° C | 70% | 1001.4 hPa | 0 mm | - | - | - |
| 1787944041 | 28.33° C | 75% | 1001 hPa | 0 mm | - | - | - |
| 1787943441 | 28.89° C | 74% | 1001 hPa | 0 mm | - | - | - |
| 1787942841 | 29.44° C | 72% | 1000.7 hPa | 0 mm | - | - | - |
| 1787942241 | 29.44° C | 73% | 1000.7 hPa | 0 mm | - | - | - |
| 1787941641 | 29.44° C | 71% | 1000.7 hPa | 0 mm | - | - | - |
| 1787941041 | 30° C | 70% | 1000.7 hPa | 0 mm | - | - | - |
| 1787940441 | 30° C | 70% | 1001 hPa | 0 mm | - | - | - |
| 1787939841 | 30° C | 69% | 1001 hPa | 0 mm | - | - | - |
| 1787939241 | 30.56° C | 68% | 1000.7 hPa | 0 mm | - | - | - |
| 1787938641 | 30.56° C | 68% | 1000.3 hPa | 0 mm | - | - | - |
| 1787938041 | 30.56° C | 69% | 1000.7 hPa | 0 mm | - | - | - |
| 1787937441 | 31.11° C | 67% | 1000.7 hPa | 0 mm | - | - | - |
| 1787936842 | 31.67° C | 66% | 1000.3 hPa | 0 mm | - | - | - |
| 1787936242 | 31.67° C | 64% | 1000.7 hPa | 0 mm | - | - | - |
| 1787935642 | 32.22° C | 62% | 1001 hPa | 0 mm | - | - | - |
| 1787935042 | 32.22° C | 62% | 1001 hPa | 0 mm | - | - | - |
| 1787934442 | 32.78° C | 59% | 1001.4 hPa | 0 mm | - | - | - |
| 1787933842 | 33.33° C | 60% | 1001 hPa | 0 mm | - | - | - |
* Rain latest hour (hover to see other rain measurements)
** Current wind speed in m/s (hover to see current wind gust speed)